Time;durP1;ratioP1;P1;durP2;ratioP2;P2;SDS_P1;SDS_P2;PMS_P1;PMS_P2;Temp;Humidity;BMP_temperature;BMP_pressure;BME280_temperature;BME280_humidity;BME280_pressure;Samples;Min_cycle;Max_cycle;Signal;HPM_P1;HPM_P2
2023/09/29 00:00:12;;;;;;;17.67;12.77;;;;;;;;;;1045918;28;20041;-66
2023/09/29 00:01:03;;;;;;;17.75;11.65;;;;;;;;;;1044502;28;20146;-66
2023/09/29 00:01:43;;;;;;;16.98;12.27;;;;;;;;;;1043922;28;20133;-67
2023/09/29 00:02:14;;;;;;;19.83;13.05;;;;;;;;;;1042720;28;20129;-67
2023/09/29 00:02:46;;;;;;;18.48;12.93;;;;;;;;;;1045896;28;20049;-67
2023/09/29 00:03:17;;;;;;;22.42;13.30;;;;;;;;;;1045682;28;20076;-66
2023/09/29 00:03:48;;;;;;;17.80;13.18;;;;;;;;;;1045314;28;20056;-66
2023/09/29 00:04:19;;;;;;;19.08;13.25;;;;;;;;;;1042866;28;20064;-66
2023/09/29 00:04:49;;;;;;;21.05;13.00;;;;;;;;;;1044725;28;20087;-67
2023/09/29 00:05:21;;;;;;;19.70;13.05;;;;;;;;;;1045144;28;20047;-66
2023/09/29 00:05:52;;;;;;;23.70;12.85;;;;;;;;;;1044287;28;20075;-67
2023/09/29 00:06:24;;;;;;;18.23;12.48;;;;;;;;;;1043240;28;20045;-66
2023/09/29 00:06:55;;;;;;;18.45;13.00;;;;;;;;;;1045398;28;20048;-66
2023/09/29 00:07:25;;;;;;;25.13;13.85;;;;;;;;;;1044412;28;20041;-66
2023/09/29 00:07:56;;;;;;;22.63;13.43;;;;;;;;;;1044470;28;20428;-67
2023/09/29 00:08:26;;;;;;;19.55;12.75;;;;;;;;;;1043160;28;20052;-67
2023/09/29 00:08:58;;;;;;;20.98;12.98;;;;;;;;;;1045427;28;20048;-67
2023/09/29 00:09:28;;;;;;;19.20;13.27;;;;;;;;;;1043673;28;20058;-67
2023/09/29 00:09:58;;;;;;;20.92;14.13;;;;;;;;;;1042820;28;20064;-67
2023/09/29 00:10:30;;;;;;;21.75;13.82;;;;;;;;;;1044863;28;20064;-66
2023/09/29 00:11:00;;;;;;;16.77;12.48;;;;;;;;;;1043289;28;20053;-67
2023/09/29 00:11:31;;;;;;;18.75;12.50;;;;;;;;;;1045063;28;20546;-67
2023/09/29 00:12:02;;;;;;;18.42;13.23;;;;;;;;;;1043684;28;20060;-66
2023/09/29 00:12:32;;;;;;;17.95;13.18;;;;;;;;;;1045724;28;20071;-66
2023/09/29 00:13:04;;;;;;;19.77;13.05;;;;;;;;;;1045120;28;20055;-66
2023/09/29 00:13:35;;;;;;;20.25;13.27;;;;;;;;;;1044110;28;20135;-67
2023/09/29 00:14:05;;;;;;;18.17;13.82;;;;;;;;;;1044189;28;20052;-67
2023/09/29 00:14:36;;;;;;;21.42;14.25;;;;;;;;;;1045619;28;20143;-67
2023/09/29 00:15:07;;;;;;;17.90;12.52;;;;;;;;;;1044703;28;20052;-66
2023/09/29 00:15:38;;;;;;;23.10;12.45;;;;;;;;;;1043879;28;20785;-66
2023/09/29 00:16:09;;;;;;;17.88;12.98;;;;;;;;;;1044702;28;20052;-66
2023/09/29 00:16:39;;;;;;;22.73;13.15;;;;;;;;;;1044221;28;20055;-66
2023/09/29 00:17:10;;;;;;;19.45;12.60;;;;;;;;;;1044116;28;20048;-67
2023/09/29 00:17:41;;;;;;;17.65;12.30;;;;;;;;;;1044320;28;20049;-67
2023/09/29 00:18:11;;;;;;;19.13;12.77;;;;;;;;;;1045033;28;21706;-66
2023/09/29 00:18:42;;;;;;;19.58;12.88;;;;;;;;;;1044429;28;20092;-66
2023/09/29 00:19:13;;;;;;;20.67;12.82;;;;;;;;;;1044147;28;20044;-67
2023/09/29 00:19:44;;;;;;;19.10;12.50;;;;;;;;;;1045225;28;20053;-67
2023/09/29 00:20:47;;;;;;;20.17;13.40;;;;;;;;;;1043582;28;20075;-67
2023/09/29 00:21:18;;;;;;;21.98;13.70;;;;;;;;;;1045291;28;20105;-66
2023/09/29 00:21:49;;;;;;;19.50;14.15;;;;;;;;;;1045088;28;20111;-67
2023/09/29 00:22:19;;;;;;;20.33;13.52;;;;;;;;;;1043482;28;20044;-66
2023/09/29 00:22:52;;;;;;;23.45;12.93;;;;;;;;;;1043750;28;20041;-66
2023/09/29 00:23:22;;;;;;;16.92;12.57;;;;;;;;;;1044129;28;20110;-66
2023/09/29 00:23:53;;;;;;;21.67;12.75;;;;;;;;;;1045154;28;20251;-66
2023/09/29 00:24:24;;;;;;;20.20;14.10;;;;;;;;;;1044948;28;20491;-67
2023/09/29 00:24:54;;;;;;;19.10;12.77;;;;;;;;;;1044469;28;20044;-66
2023/09/29 00:25:26;;;;;;;18.02;13.00;;;;;;;;;;1043490;28;20056;-66
2023/09/29 00:25:56;;;;;;;20.52;13.68;;;;;;;;;;1046471;28;20135;-66
2023/09/29 00:26:27;;;;;;;19.05;12.23;;;;;;;;;;1045113;28;20125;-66
2023/09/29 00:26:57;;;;;;;19.65;12.90;;;;;;;;;;1044975;28;20071;-66
2023/09/29 00:27:28;;;;;;;21.20;12.32;;;;;;;;;;1044675;28;20800;-66
2023/09/29 00:27:58;;;;;;;19.70;13.13;;;;;;;;;;1044066;28;20053;-67
2023/09/29 00:28:29;;;;;;;19.67;13.35;;;;;;;;;;1044038;28;20045;-66
2023/09/29 00:28:59;;;;;;;25.92;13.95;;;;;;;;;;1044767;28;20128;-66
2023/09/29 00:29:30;;;;;;;20.05;12.98;;;;;;;;;;1045306;28;20093;-66
2023/09/29 00:30:00;;;;;;;20.17;12.60;;;;;;;;;;1045232;28;20048;-66
2023/09/29 00:30:31;;;;;;;20.40;13.68;;;;;;;;;;1042558;28;20066;-67
2023/09/29 00:31:04;;;;;;;19.75;14.00;;;;;;;;;;1044365;28;20378;-66
2023/09/29 00:31:34;;;;;;;17.98;12.90;;;;;;;;;;1045071;28;20110;-66
2023/09/29 00:32:05;;;;;;;19.95;12.93;;;;;;;;;;1044344;28;20139;-67
2023/09/29 00:32:35;;;;;;;16.95;13.82;;;;;;;;;;1044457;28;20066;-67
2023/09/29 00:33:06;;;;;;;18.38;12.77;;;;;;;;;;1045207;28;20053;-67
2023/09/29 00:33:36;;;;;;;22.08;13.80;;;;;;;;;;1044682;28;20201;-67
2023/09/29 00:34:07;;;;;;;17.65;13.40;;;;;;;;;;1044498;28;20138;-66
2023/09/29 00:34:38;;;;;;;15.80;12.75;;;;;;;;;;1044211;28;20105;-66
2023/09/29 00:35:17;;;;;;;21.65;13.15;;;;;;;;;;1044076;28;20060;-66
2023/09/29 00:35:48;;;;;;;22.50;13.93;;;;;;;;;;1042697;28;20177;-66
2023/09/29 00:36:18;;;;;;;20.70;13.63;;;;;;;;;;1043633;28;20094;-67
2023/09/29 00:36:51;;;;;;;19.60;13.55;;;;;;;;;;1046120;28;20048;-67
2023/09/29 00:37:21;;;;;;;20.42;13.85;;;;;;;;;;1044017;28;20082;-66
2023/09/29 00:37:53;;;;;;;19.67;13.88;;;;;;;;;;1046089;28;20044;-67
2023/09/29 00:38:24;;;;;;;20.27;13.60;;;;;;;;;;1044681;28;20048;-67
2023/09/29 00:38:54;;;;;;;18.95;13.40;;;;;;;;;;1046356;28;20045;-66
2023/09/29 00:39:25;;;;;;;20.13;13.00;;;;;;;;;;1046042;28;20052;-67
2023/09/29 00:39:56;;;;;;;24.58;13.88;;;;;;;;;;1045603;28;20048;-67
2023/09/29 00:40:28;;;;;;;22.92;14.30;;;;;;;;;;1042708;28;20052;-67
2023/09/29 00:40:58;;;;;;;26.95;14.57;;;;;;;;;;1046565;28;20045;-67
2023/09/29 00:41:30;;;;;;;19.05;12.43;;;;;;;;;;1045090;28;20057;-66
2023/09/29 00:42:00;;;;;;;21.33;13.55;;;;;;;;;;1046671;28;20049;-66
2023/09/29 00:42:33;;;;;;;20.45;13.63;;;;;;;;;;1044560;28;20171;-66
2023/09/29 00:43:04;;;;;;;18.63;13.23;;;;;;;;;;1043398;28;20060;-66
2023/09/29 00:43:38;;;;;;;20.35;13.63;;;;;;;;;;1043978;28;20061;-67
2023/09/29 00:44:10;;;;;;;20.23;13.50;;;;;;;;;;1043900;28;20523;-66
2023/09/29 00:44:40;;;;;;;19.00;12.88;;;;;;;;;;1047034;28;20075;-66
2023/09/29 00:45:12;;;;;;;16.73;12.52;;;;;;;;;;1042386;28;20138;-67
2023/09/29 00:45:43;;;;;;;18.85;12.85;;;;;;;;;;1045753;28;20052;-66
2023/09/29 00:46:14;;;;;;;20.40;12.90;;;;;;;;;;1043685;28;20056;-67
2023/09/29 00:46:45;;;;;;;25.13;13.80;;;;;;;;;;1046631;28;20040;-66
2023/09/29 00:47:15;;;;;;;18.90;14.02;;;;;;;;;;1044737;28;21067;-66
2023/09/29 00:47:49;;;;;;;19.48;14.05;;;;;;;;;;1045609;28;20052;-66
2023/09/29 00:48:22;;;;;;;19.10;13.43;;;;;;;;;;1044877;28;20053;-66
2023/09/29 00:48:54;;;;;;;20.00;13.95;;;;;;;;;;1046863;28;20071;-66
2023/09/29 00:49:26;;;;;;;17.83;12.98;;;;;;;;;;1044328;28;20067;-66
2023/09/29 00:49:57;;;;;;;18.55;13.25;;;;;;;;;;1045949;28;20075;-66
2023/09/29 00:50:28;;;;;;;20.63;13.25;;;;;;;;;;1042665;28;20052;-66
2023/09/29 00:50:59;;;;;;;18.65;13.55;;;;;;;;;;1045007;28;20064;-66
2023/09/29 00:51:30;;;;;;;19.08;12.73;;;;;;;;;;1043176;28;20045;-66
2023/09/29 00:52:02;;;;;;;22.58;13.55;;;;;;;;;;1045792;28;20465;-66
2023/09/29 00:52:37;;;;;;;19.73;12.57;;;;;;;;;;1043589;28;20157;-67
2023/09/29 00:53:11;;;;;;;17.90;12.98;;;;;;;;;;1045616;28;20052;-66
2023/09/29 00:53:42;;;;;;;19.85;12.70;;;;;;;;;;1045357;28;20056;-67
2023/09/29 00:54:14;;;;;;;23.42;13.05;;;;;;;;;;1045627;28;20063;-67
2023/09/29 00:54:45;;;;;;;18.92;13.13;;;;;;;;;;1045470;28;20095;-67
2023/09/29 00:55:17;;;;;;;21.80;12.98;;;;;;;;;;1046596;28;20053;-67
2023/09/29 00:55:48;;;;;;;21.38;13.15;;;;;;;;;;1044308;28;20049;-67
2023/09/29 00:56:19;;;;;;;23.98;13.77;;;;;;;;;;1045865;28;20138;-67
2023/09/29 00:56:49;;;;;;;21.27;13.18;;;;;;;;;;1040667;28;20484;-67
2023/09/29 00:57:20;;;;;;;23.27;13.77;;;;;;;;;;1042713;28;20098;-66
2023/09/29 00:57:51;;;;;;;16.92;12.98;;;;;;;;;;1041554;28;20099;-67
2023/09/29 00:58:21;;;;;;;17.80;12.85;;;;;;;;;;1045180;28;20130;-67
2023/09/29 00:58:55;;;;;;;17.00;13.18;;;;;;;;;;1045185;28;20049;-67
2023/09/29 00:59:27;;;;;;;18.73;13.52;;;;;;;;;;1046223;28;20059;-67
2023/09/29 00:59:57;;;;;;;17.58;12.60;;;;;;;;;;1045867;28;20049;-67
2023/09/29 01:01:00;;;;;;;21.48;14.07;;;;;;;;;;1044764;28;20126;-67
2023/09/29 01:01:30;;;;;;;23.67;13.88;;;;;;;;;;1044640;28;20132;-67
2023/09/29 01:02:04;;;;;;;19.17;12.50;;;;;;;;;;1044214;28;20048;-67
2023/09/29 01:02:34;;;;;;;20.95;13.80;;;;;;;;;;1045176;28;20072;-67
2023/09/29 01:03:08;;;;;;;23.38;14.60;;;;;;;;;;1046160;28;20060;-67
2023/09/29 01:03:39;;;;;;;19.05;13.75;;;;;;;;;;1044293;28;20049;-67
2023/09/29 01:04:10;;;;;;;20.42;13.70;;;;;;;;;;1045614;28;20057;-67
2023/09/29 01:04:41;;;;;;;17.83;13.48;;;;;;;;;;1045073;28;20060;-67
2023/09/29 01:05:12;;;;;;;25.75;13.90;;;;;;;;;;1046233;28;20132;-67
2023/09/29 01:05:47;;;;;;;23.20;14.25;;;;;;;;;;1045816;28;20046;-67
2023/09/29 01:06:18;;;;;;;20.58;13.48;;;;;;;;;;1045870;28;20623;-67
2023/09/29 01:06:50;;;;;;;20.77;13.95;;;;;;;;;;1045423;28;20048;-67
2023/09/29 01:07:20;;;;;;;21.27;13.65;;;;;;;;;;1045379;28;20102;-67
2023/09/29 01:07:51;;;;;;;23.67;13.40;;;;;;;;;;1046131;28;20102;-67
2023/09/29 01:08:23;;;;;;;23.38;14.18;;;;;;;;;;1045596;28;20056;-67
2023/09/29 01:08:54;;;;;;;23.95;13.52;;;;;;;;;;1045375;28;20056;-67
2023/09/29 01:09:24;;;;;;;20.65;13.98;;;;;;;;;;1045218;28;20064;-67
2023/09/29 01:09:55;;;;;;;23.00;14.13;;;;;;;;;;1045323;28;20071;-67
2023/09/29 01:10:26;;;;;;;20.88;14.73;;;;;;;;;;1045956;28;20045;-67
2023/09/29 01:10:57;;;;;;;22.50;14.63;;;;;;;;;;1044827;28;20048;-67
2023/09/29 01:11:27;;;;;;;24.08;14.75;;;;;;;;;;1044013;28;20147;-67
2023/09/29 01:12:00;;;;;;;19.20;13.77;;;;;;;;;;1045143;28;20045;-67
2023/09/29 01:12:30;;;;;;;20.17;14.65;;;;;;;;;;1045972;28;20055;-67
2023/09/29 01:13:01;;;;;;;21.42;14.15;;;;;;;;;;1046450;28;20048;-67
2023/09/29 01:13:32;;;;;;;16.65;12.63;;;;;;;;;;1046232;28;20052;-67
2023/09/29 01:14:02;;;;;;;18.77;12.57;;;;;;;;;;1044780;28;20059;-67
2023/09/29 01:14:33;;;;;;;23.20;13.32;;;;;;;;;;1045848;28;20485;-67
2023/09/29 01:15:05;;;;;;;18.52;12.98;;;;;;;;;;1046410;28;20095;-67
2023/09/29 01:15:36;;;;;;;25.90;14.02;;;;;;;;;;1045620;28;20499;-67
2023/09/29 01:16:08;;;;;;;21.90;13.60;;;;;;;;;;1045485;28;20083;-67
2023/09/29 01:16:40;;;;;;;19.83;13.65;;;;;;;;;;1042021;28;20059;-67
2023/09/29 01:17:11;;;;;;;19.42;13.43;;;;;;;;;;1042163;28;20496;-67
2023/09/29 01:17:43;;;;;;;18.17;12.05;;;;;;;;;;1045297;28;20722;-67
2023/09/29 01:18:16;;;;;;;18.48;13.13;;;;;;;;;;1046855;28;20828;-67
2023/09/29 01:18:47;;;;;;;20.55;12.90;;;;;;;;;;1045391;28;20044;-67
2023/09/29 01:19:18;;;;;;;22.23;14.25;;;;;;;;;;1045198;28;20056;-67
2023/09/29 01:19:48;;;;;;;20.50;13.85;;;;;;;;;;1045165;28;20527;-67
2023/09/29 01:20:31;;;;;;;22.25;14.25;;;;;;;;;;1046597;28;20508;-67
2023/09/29 01:21:06;;;;;;;17.77;13.63;;;;;;;;;;1045775;28;20044;-67
2023/09/29 01:21:46;;;;;;;29.35;14.98;;;;;;;;;;1043176;28;20063;-67
2023/09/29 01:22:17;;;;;;;20.73;14.20;;;;;;;;;;1046077;28;20096;-67
2023/09/29 01:22:48;;;;;;;20.95;14.10;;;;;;;;;;1045050;28;20289;-67
2023/09/29 01:23:20;;;;;;;18.67;13.05;;;;;;;;;;1045178;28;20045;-67
2023/09/29 01:23:50;;;;;;;19.80;13.82;;;;;;;;;;1046317;28;20049;-67
2023/09/29 01:24:22;;;;;;;19.08;14.23;;;;;;;;;;1043535;28;20056;-67
2023/09/29 01:24:53;;;;;;;22.90;14.93;;;;;;;;;;1045923;28;20498;-67
2023/09/29 01:25:23;;;;;;;24.95;14.68;;;;;;;;;;1044405;28;20397;-67
2023/09/29 01:25:54;;;;;;;22.42;13.95;;;;;;;;;;1046539;28;20051;-66
2023/09/29 01:26:26;;;;;;;25.55;15.13;;;;;;;;;;1045331;28;20056;-66
2023/09/29 01:26:58;;;;;;;19.63;14.63;;;;;;;;;;1043576;28;20049;-67
2023/09/29 01:27:28;;;;;;;24.70;15.02;;;;;;;;;;1043212;28;20072;-67
2023/09/29 01:28:01;;;;;;;22.85;15.68;;;;;;;;;;1044359;28;20448;-67
2023/09/29 01:28:32;;;;;;;22.92;15.00;;;;;;;;;;1045681;28;20053;-67
2023/09/29 01:29:03;;;;;;;23.60;15.70;;;;;;;;;;1046351;28;20140;-67
2023/09/29 01:29:34;;;;;;;25.15;14.98;;;;;;;;;;1044628;28;20057;-67
2023/09/29 01:30:05;;;;;;;23.88;15.55;;;;;;;;;;1045755;28;20045;-67
2023/09/29 01:30:37;;;;;;;22.90;15.60;;;;;;;;;;1040302;28;20064;-67
2023/09/29 01:31:08;;;;;;;21.25;15.27;;;;;;;;;;1041497;28;20057;-67
2023/09/29 01:31:39;;;;;;;21.48;15.52;;;;;;;;;;1040760;28;20062;-67
2023/09/29 01:32:14;;;;;;;27.92;15.20;;;;;;;;;;1040848;28;20060;-67
2023/09/29 01:32:49;;;;;;;21.65;14.90;;;;;;;;;;1041613;28;20044;-67
2023/09/29 01:33:21;;;;;;;21.50;14.85;;;;;;;;;;1041895;28;20157;-67
2023/09/29 01:33:51;;;;;;;21.63;14.07;;;;;;;;;;1041074;28;23355;-67
2023/09/29 01:34:24;;;;;;;22.17;14.43;;;;;;;;;;1040442;28;20667;-67
2023/09/29 01:34:54;;;;;;;19.90;14.82;;;;;;;;;;1040759;28;20049;-67
2023/09/29 01:35:27;;;;;;;24.80;14.93;;;;;;;;;;1043411;28;20098;-67
2023/09/29 01:35:58;;;;;;;23.35;13.93;;;;;;;;;;1045163;28;20044;-67
2023/09/29 01:36:29;;;;;;;25.13;14.45;;;;;;;;;;1041624;28;20049;-66
2023/09/29 01:37:02;;;;;;;24.63;15.38;;;;;;;;;;1039518;28;20045;-67
2023/09/29 01:37:36;;;;;;;28.42;14.57;;;;;;;;;;1040605;28;20053;-67
2023/09/29 01:38:06;;;;;;;20.70;13.85;;;;;;;;;;1040596;28;20057;-67
2023/09/29 01:38:38;;;;;;;22.65;14.77;;;;;;;;;;1042374;28;20057;-67
2023/09/29 01:39:11;;;;;;;26.33;14.32;;;;;;;;;;1041268;28;20131;-67
2023/09/29 01:39:41;;;;;;;22.05;14.93;;;;;;;;;;1044633;28;20056;-67
2023/09/29 01:40:12;;;;;;;21.65;13.68;;;;;;;;;;1044502;28;20052;-67
2023/09/29 01:40:45;;;;;;;23.20;14.80;;;;;;;;;;1041276;28;20620;-67
2023/09/29 01:41:15;;;;;;;22.35;14.52;;;;;;;;;;1040035;28;20053;-67
2023/09/29 01:41:47;;;;;;;24.52;15.27;;;;;;;;;;1040614;28;20049;-67
2023/09/29 01:42:19;;;;;;;27.23;15.15;;;;;;;;;;1041947;28;20664;-67
2023/09/29 01:42:51;;;;;;;25.70;15.60;;;;;;;;;;1044564;28;20060;-67
2023/09/29 01:43:23;;;;;;;22.98;15.57;;;;;;;;;;1043041;28;20052;-67
2023/09/29 01:43:54;;;;;;;22.00;14.75;;;;;;;;;;1045258;28;20064;-67
2023/09/29 01:44:24;;;;;;;20.63;15.45;;;;;;;;;;1042275;28;20068;-67
2023/09/29 01:44:55;;;;;;;22.65;15.25;;;;;;;;;;1042287;28;20059;-67
2023/09/29 01:45:26;;;;;;;21.33;15.23;;;;;;;;;;1044590;28;20130;-66
2023/09/29 01:45:57;;;;;;;23.27;15.05;;;;;;;;;;1045129;28;20058;-67
2023/09/29 01:46:29;;;;;;;23.27;14.90;;;;;;;;;;1046161;28;20052;-67
2023/09/29 01:46:59;;;;;;;24.33;14.57;;;;;;;;;;1043077;28;20130;-67
2023/09/29 01:47:30;;;;;;;23.95;15.23;;;;;;;;;;1046006;28;20048;-67
2023/09/29 01:48:01;;;;;;;26.98;16.15;;;;;;;;;;1045494;28;20068;-67
2023/09/29 01:48:31;;;;;;;24.27;14.70;;;;;;;;;;1045423;28;20534;-67
2023/09/29 01:49:02;;;;;;;23.92;15.73;;;;;;;;;;1044124;28;20389;-67
2023/09/29 01:49:32;;;;;;;23.15;14.75;;;;;;;;;;1044492;27;20423;-67
2023/09/29 01:50:03;;;;;;;29.48;17.27;;;;;;;;;;1045314;28;20052;-67
2023/09/29 01:50:33;;;;;;;25.02;16.35;;;;;;;;;;1045982;28;20048;-67
2023/09/29 01:51:04;;;;;;;22.70;16.30;;;;;;;;;;1044008;28;20044;-67
2023/09/29 01:51:34;;;;;;;29.40;15.85;;;;;;;;;;1045141;28;20052;-67
2023/09/29 01:52:06;;;;;;;21.25;15.00;;;;;;;;;;1044684;28;20060;-67
2023/09/29 01:52:40;;;;;;;25.30;15.27;;;;;;;;;;1045276;28;20064;-67
2023/09/29 01:53:12;;;;;;;24.30;14.10;;;;;;;;;;1045804;28;20106;-67
2023/09/29 01:53:42;;;;;;;20.65;15.05;;;;;;;;;;1044254;28;20461;-67
2023/09/29 01:54:13;;;;;;;21.35;14.93;;;;;;;;;;1045270;28;20828;-67
2023/09/29 01:54:44;;;;;;;22.90;15.20;;;;;;;;;;1045917;28;20053;-67
2023/09/29 01:55:16;;;;;;;25.92;16.25;;;;;;;;;;1045596;28;20125;-67
2023/09/29 01:55:46;;;;;;;24.23;15.60;;;;;;;;;;1045958;28;20119;-67
2023/09/29 01:56:21;;;;;;;21.92;15.60;;;;;;;;;;1046291;28;20986;-67
2023/09/29 01:56:51;;;;;;;23.92;15.30;;;;;;;;;;1043192;28;20051;-67
2023/09/29 01:57:22;;;;;;;20.45;14.80;;;;;;;;;;1045261;28;20054;-67
2023/09/29 01:57:57;;;;;;;22.83;14.82;;;;;;;;;;1044995;28;20049;-67
2023/09/29 01:58:28;;;;;;;21.35;14.18;;;;;;;;;;1044641;28;20059;-67
2023/09/29 01:58:59;;;;;;;24.80;14.90;;;;;;;;;;1045050;28;20064;-67
2023/09/29 01:59:30;;;;;;;25.40;15.68;;;;;;;;;;1045331;28;20049;-67
2023/09/29 02:00:01;;;;;;;22.70;15.27;;;;;;;;;;1045812;28;20189;-67
2023/09/29 02:00:32;;;;;;;22.63;15.05;;;;;;;;;;1044585;28;20167;-67
2023/09/29 02:01:02;;;;;;;24.05;15.30;;;;;;;;;;1043767;28;20045;-67
2023/09/29 02:01:37;;;;;;;26.08;16.48;;;;;;;;;;1045718;28;20485;-67
2023/09/29 02:02:07;;;;;;;25.90;15.88;;;;;;;;;;1044939;28;20064;-67
2023/09/29 02:02:38;;;;;;;24.25;15.30;;;;;;;;;;1044734;28;20075;-67
2023/09/29 02:03:08;;;;;;;30.17;16.48;;;;;;;;;;1044797;28;20079;-67
2023/09/29 02:03:39;;;;;;;24.52;15.68;;;;;;;;;;1044940;28;20044;-67
2023/09/29 02:04:09;;;;;;;24.52;15.27;;;;;;;;;;1044591;28;20063;-67
2023/09/29 02:04:40;;;;;;;27.60;16.10;;;;;;;;;;1046421;28;20059;-67
2023/09/29 02:05:11;;;;;;;22.33;15.55;;;;;;;;;;1045650;28;20056;-67
2023/09/29 02:05:42;;;;;;;20.15;14.95;;;;;;;;;;1043041;28;20147;-67
2023/09/29 02:06:13;;;;;;;29.02;15.98;;;;;;;;;;1045738;28;20052;-67
2023/09/29 02:06:44;;;;;;;21.90;15.30;;;;;;;;;;1044615;28;20553;-67
2023/09/29 02:07:15;;;;;;;24.17;16.20;;;;;;;;;;1045992;28;20489;-67
2023/09/29 02:07:47;;;;;;;19.35;15.45;;;;;;;;;;1045756;28;20088;-67
2023/09/29 02:08:18;;;;;;;23.40;15.70;;;;;;;;;;1046156;28;20062;-67
2023/09/29 02:08:48;;;;;;;26.60;16.20;;;;;;;;;;1044425;28;20075;-67
2023/09/29 02:09:19;;;;;;;23.95;14.95;;;;;;;;;;1044973;28;20071;-67
2023/09/29 02:09:50;;;;;;;30.35;16.67;;;;;;;;;;1045467;28;20110;-67
2023/09/29 02:10:21;;;;;;;21.25;15.07;;;;;;;;;;1045944;28;20133;-66
2023/09/29 02:10:52;;;;;;;25.08;15.32;;;;;;;;;;1044915;28;20089;-67
2023/09/29 02:11:23;;;;;;;23.02;15.45;;;;;;;;;;1043903;28;20114;-67
2023/09/29 02:11:54;;;;;;;23.33;16.35;;;;;;;;;;1043683;28;20059;-67
2023/09/29 02:12:25;;;;;;;24.55;16.50;;;;;;;;;;1044897;28;20613;-67
2023/09/29 02:12:58;;;;;;;29.30;16.95;;;;;;;;;;1046294;28;20975;-67
2023/09/29 02:13:30;;;;;;;23.48;16.25;;;;;;;;;;1045599;28;20047;-67
2023/09/29 02:14:02;;;;;;;23.60;15.13;;;;;;;;;;1045006;28;20122;-67
2023/09/29 02:14:33;;;;;;;26.05;15.88;;;;;;;;;;1044668;28;20052;-67
2023/09/29 02:15:06;;;;;;;24.50;16.67;;;;;;;;;;1046514;28;20053;-67
2023/09/29 02:15:37;;;;;;;21.83;15.65;;;;;;;;;;1045093;28;20056;-67
2023/09/29 02:16:12;;;;;;;20.85;16.25;;;;;;;;;;1045567;28;20060;-66
2023/09/29 02:16:42;;;;;;;24.30;16.08;;;;;;;;;;1044744;28;20097;-67
2023/09/29 02:17:13;;;;;;;26.60;15.52;;;;;;;;;;1045545;28;20052;-66
2023/09/29 02:17:49;;;;;;;22.88;15.13;;;;;;;;;;1045045;28;20481;-67
2023/09/29 02:18:20;;;;;;;24.02;16.08;;;;;;;;;;1045461;28;20048;-67
2023/09/29 02:18:50;;;;;;;25.70;16.08;;;;;;;;;;1046249;28;20040;-66
2023/09/29 02:19:21;;;;;;;23.77;15.10;;;;;;;;;;1043566;28;20049;-66
2023/09/29 02:19:52;;;;;;;29.45;15.98;;;;;;;;;;1045901;28;20662;-67
2023/09/29 02:20:33;;;;;;;28.67;15.68;;;;;;;;;;1044410;28;20773;-66
2023/09/29 02:21:06;;;;;;;23.10;15.75;;;;;;;;;;1046053;28;20433;-67
2023/09/29 02:21:36;;;;;;;22.85;15.75;;;;;;;;;;1045548;28;20165;-67
2023/09/29 02:22:08;;;;;;;28.23;16.63;;;;;;;;;;1044625;28;20149;-67
2023/09/29 02:22:39;;;;;;;24.88;16.75;;;;;;;;;;1044504;28;20151;-67
2023/09/29 02:23:10;;;;;;;27.42;16.15;;;;;;;;;;1045280;28;20052;-66
2023/09/29 02:23:40;;;;;;;21.42;16.17;;;;;;;;;;1045706;28;20316;-67
2023/09/29 02:24:12;;;;;;;21.48;15.27;;;;;;;;;;1043908;28;20080;-67
2023/09/29 02:24:43;;;;;;;21.67;15.98;;;;;;;;;;1044926;28;20136;-67
2023/09/29 02:25:16;;;;;;;25.35;16.48;;;;;;;;;;1046101;28;20048;-67
2023/09/29 02:25:46;;;;;;;23.75;15.30;;;;;;;;;;1045836;28;20048;-67
2023/09/29 02:26:17;;;;;;;27.90;16.15;;;;;;;;;;1045854;28;20056;-67
2023/09/29 02:26:47;;;;;;;26.17;16.08;;;;;;;;;;1045262;28;20059;-67
2023/09/29 02:27:18;;;;;;;24.08;15.85;;;;;;;;;;1045607;28;20097;-67
2023/09/29 02:27:50;;;;;;;25.23;15.75;;;;;;;;;;1045833;28;20113;-67
2023/09/29 02:28:22;;;;;;;21.65;15.73;;;;;;;;;;1045478;28;20492;-67
2023/09/29 02:28:54;;;;;;;22.60;15.45;;;;;;;;;;1045607;28;20080;-67
2023/09/29 02:29:27;;;;;;;24.33;16.55;;;;;;;;;;1044160;28;20051;-67
2023/09/29 02:29:58;;;;;;;21.13;14.50;;;;;;;;;;1044999;28;20084;-67
2023/09/29 02:30:29;;;;;;;25.50;16.55;;;;;;;;;;1044067;28;20052;-67
2023/09/29 02:31:03;;;;;;;26.30;16.17;;;;;;;;;;1045269;28;20055;-67
2023/09/29 02:31:36;;;;;;;25.23;16.63;;;;;;;;;;1044873;28;20397;-67
2023/09/29 02:32:07;;;;;;;26.42;15.88;;;;;;;;;;1045530;28;20057;-67
2023/09/29 02:32:39;;;;;;;28.80;16.70;;;;;;;;;;1045348;28;20102;-67
2023/09/29 02:33:09;;;;;;;21.45;15.68;;;;;;;;;;1045703;28;20603;-67
2023/09/29 02:33:40;;;;;;;25.58;16.33;;;;;;;;;;1044296;28;20056;-67
2023/09/29 02:34:11;;;;;;;26.48;16.42;;;;;;;;;;1044876;28;20044;-67
2023/09/29 02:34:43;;;;;;;27.23;16.60;;;;;;;;;;1044976;28;20052;-67
2023/09/29 02:35:13;;;;;;;31.67;17.77;;;;;;;;;;1045507;28;20048;-67
2023/09/29 02:35:44;;;;;;;25.92;16.15;;;;;;;;;;1044714;28;20057;-67
2023/09/29 02:36:14;;;;;;;28.52;16.45;;;;;;;;;;1045378;28;20102;-67
2023/09/29 02:36:45;;;;;;;27.35;17.17;;;;;;;;;;1044731;28;20054;-67
2023/09/29 02:37:15;;;;;;;28.80;16.98;;;;;;;;;;1044252;28;20052;-67
2023/09/29 02:37:47;;;;;;;25.85;16.00;;;;;;;;;;1043588;28;20139;-67
2023/09/29 02:38:17;;;;;;;25.63;16.50;;;;;;;;;;1044997;28;20079;-67
2023/09/29 02:38:48;;;;;;;24.80;15.90;;;;;;;;;;1045861;28;20044;-67
2023/09/29 02:39:19;;;;;;;26.73;15.90;;;;;;;;;;1042934;28;20186;-67
2023/09/29 02:39:49;;;;;;;26.42;16.85;;;;;;;;;;1044785;28;20056;-67
2023/09/29 02:40:22;;;;;;;30.55;17.55;;;;;;;;;;1044719;28;20492;-67
2023/09/29 02:40:54;;;;;;;30.95;16.45;;;;;;;;;;1046116;28;20036;-67
2023/09/29 02:41:24;;;;;;;24.17;16.30;;;;;;;;;;1044727;28;20044;-67
2023/09/29 02:41:55;;;;;;;27.00;14.80;;;;;;;;;;1044688;28;20044;-67
2023/09/29 02:42:25;;;;;;;28.55;16.88;;;;;;;;;;1043919;28;20055;-67
2023/09/29 02:42:56;;;;;;;25.05;15.57;;;;;;;;;;1046339;28;20097;-67
2023/09/29 02:43:32;;;;;;;33.75;17.77;;;;;;;;;;1045450;28;20131;-67
2023/09/29 02:44:03;;;;;;;23.52;15.50;;;;;;;;;;1043856;28;20134;-67
2023/09/29 02:44:35;;;;;;;27.75;15.60;;;;;;;;;;1043694;28;20130;-67
2023/09/29 02:45:06;;;;;;;24.45;16.23;;;;;;;;;;1045233;28;20055;-67
2023/09/29 02:45:43;;;;;;;26.77;16.38;;;;;;;;;;1044963;28;20057;-67
2023/09/29 02:46:17;;;;;;;30.60;16.63;;;;;;;;;;1045274;28;20546;-67
2023/09/29 02:46:47;;;;;;;28.52;16.67;;;;;;;;;;1044705;28;20055;-67
2023/09/29 02:47:18;;;;;;;27.45;16.70;;;;;;;;;;1043026;28;20079;-67
2023/09/29 02:47:48;;;;;;;26.30;16.23;;;;;;;;;;1046051;28;20059;-67
2023/09/29 02:48:19;;;;;;;27.88;15.77;;;;;;;;;;1044937;28;20122;-67
2023/09/29 02:48:50;;;;;;;33.33;17.42;;;;;;;;;;1044306;28;20075;-67
2023/09/29 02:49:20;;;;;;;28.52;16.38;;;;;;;;;;1045114;28;20363;-67
2023/09/29 02:49:51;;;;;;;31.92;16.50;;;;;;;;;;1045258;28;20664;-67
2023/09/29 02:50:21;;;;;;;26.15;16.00;;;;;;;;;;1044362;28;20115;-67
2023/09/29 02:50:52;;;;;;;24.67;16.83;;;;;;;;;;1046444;28;20629;-67
2023/09/29 02:51:22;;;;;;;23.30;16.20;;;;;;;;;;1044679;28;20131;-67
2023/09/29 02:51:53;;;;;;;26.45;16.65;;;;;;;;;;1045001;28;20052;-67
2023/09/29 02:52:27;;;;;;;24.83;16.33;;;;;;;;;;1044006;28;20048;-66
2023/09/29 02:52:57;;;;;;;23.77;15.82;;;;;;;;;;1045100;28;20052;-67
2023/09/29 02:53:28;;;;;;;25.10;15.63;;;;;;;;;;1045162;28;20045;-67
2023/09/29 02:53:59;;;;;;;25.00;15.68;;;;;;;;;;1045208;28;20048;-67
2023/09/29 02:54:30;;;;;;;23.73;15.88;;;;;;;;;;1044379;28;20060;-67
2023/09/29 02:55:00;;;;;;;25.52;16.90;;;;;;;;;;1045540;28;20044;-67
2023/09/29 02:55:31;;;;;;;24.42;15.70;;;;;;;;;;1044953;28;20417;-66
2023/09/29 02:56:01;;;;;;;21.48;16.08;;;;;;;;;;1044111;28;20053;-67
2023/09/29 02:56:32;;;;;;;22.38;16.67;;;;;;;;;;1044222;28;20048;-67
2023/09/29 02:57:02;;;;;;;23.08;15.68;;;;;;;;;;1045948;28;20052;-67
2023/09/29 02:57:33;;;;;;;25.05;16.50;;;;;;;;;;1044632;28;20052;-66
2023/09/29 02:58:04;;;;;;;23.75;15.80;;;;;;;;;;1046212;28;20045;-67
2023/09/29 02:58:34;;;;;;;26.38;17.25;;;;;;;;;;1044393;28;20052;-67
2023/09/29 02:59:05;;;;;;;24.30;15.77;;;;;;;;;;1044849;28;20053;-67
2023/09/29 02:59:38;;;;;;;24.17;15.85;;;;;;;;;;1044744;28;20075;-67
2023/09/29 03:00:18;;;;;;;22.75;15.95;;;;;;;;;;1043801;28;20905;-67
2023/09/29 03:00:49;;;;;;;24.02;16.02;;;;;;;;;;1044778;28;23412;-67
2023/09/29 03:01:20;;;;;;;23.27;15.35;;;;;;;;;;1045691;28;20052;-66
2023/09/29 03:01:51;;;;;;;24.50;15.82;;;;;;;;;;1044266;28;20098;-67
2023/09/29 03:02:22;;;;;;;24.52;16.52;;;;;;;;;;1044594;28;20079;-67
2023/09/29 03:02:52;;;;;;;22.67;16.10;;;;;;;;;;1045298;28;20098;-67
2023/09/29 03:03:26;;;;;;;24.58;17.55;;;;;;;;;;1045758;28;20101;-67
2023/09/29 03:03:58;;;;;;;26.10;16.40;;;;;;;;;;1045509;28;20459;-67